sensor_id;sensor_type;location;lat;lon;timestamp;P1;durP1;ratioP1;P2;durP2;ratioP2
75048;SDS011;63803;53.120;8.764;2023-02-15T00:01:24;7.50;;;4.15;;
75048;SDS011;63803;53.120;8.764;2023-02-15T00:03:50;6.50;;;3.60;;
75048;SDS011;63803;53.120;8.764;2023-02-15T00:06:16;4.40;;;3.70;;
75048;SDS011;63803;53.120;8.764;2023-02-15T00:08:42;4.85;;;3.65;;
75048;SDS011;63803;53.120;8.764;2023-02-15T00:11:08;5.95;;;3.78;;
75048;SDS011;63803;53.120;8.764;2023-02-15T00:13:35;4.80;;;3.92;;
75048;SDS011;63803;53.120;8.764;2023-02-15T00:16:04;4.30;;;3.90;;
75048;SDS011;63803;53.120;8.764;2023-02-15T00:20:57;4.75;;;3.90;;
75048;SDS011;63803;53.120;8.764;2023-02-15T00:23:23;5.15;;;4.00;;
75048;SDS011;63803;53.120;8.764;2023-02-15T00:25:51;4.25;;;3.30;;
75048;SDS011;63803;53.120;8.764;2023-02-15T00:28:16;4.68;;;4.00;;
75048;SDS011;63803;53.120;8.764;2023-02-15T00:30:41;5.65;;;3.80;;
75048;SDS011;63803;53.120;8.764;2023-02-15T00:33:07;4.85;;;3.67;;
75048;SDS011;63803;53.120;8.764;2023-02-15T00:35:32;6.40;;;4.47;;
75048;SDS011;63803;53.120;8.764;2023-02-15T00:37:57;5.65;;;3.78;;
75048;SDS011;63803;53.120;8.764;2023-02-15T00:40:23;5.00;;;3.20;;
75048;SDS011;63803;53.120;8.764;2023-02-15T00:42:48;5.00;;;3.75;;
75048;SDS011;63803;53.120;8.764;2023-02-15T00:45:13;7.05;;;3.72;;
75048;SDS011;63803;53.120;8.764;2023-02-15T00:47:39;6.15;;;3.97;;
75048;SDS011;63803;53.120;8.764;2023-02-15T00:50:05;6.05;;;3.40;;
75048;SDS011;63803;53.120;8.764;2023-02-15T00:52:31;28.60;;;4.68;;
75048;SDS011;63803;53.120;8.764;2023-02-15T00:54:56;9.98;;;3.80;;
75048;SDS011;63803;53.120;8.764;2023-02-15T00:57:21;4.80;;;3.72;;
75048;SDS011;63803;53.120;8.764;2023-02-15T00:59:47;5.82;;;4.32;;
75048;SDS011;63803;53.120;8.764;2023-02-15T01:02:12;6.20;;;4.70;;
75048;SDS011;63803;53.120;8.764;2023-02-15T01:04:37;6.07;;;3.67;;
75048;SDS011;63803;53.120;8.764;2023-02-15T01:07:03;7.60;;;4.35;;
75048;SDS011;63803;53.120;8.764;2023-02-15T01:09:28;6.05;;;3.95;;
75048;SDS011;63803;53.120;8.764;2023-02-15T01:11:54;11.20;;;3.78;;
75048;SDS011;63803;53.120;8.764;2023-02-15T01:14:20;8.70;;;4.05;;
75048;SDS011;63803;53.120;8.764;2023-02-15T01:16:45;9.02;;;4.15;;
75048;SDS011;63803;53.120;8.764;2023-02-15T01:19:10;6.00;;;3.90;;
75048;SDS011;63803;53.120;8.764;2023-02-15T01:21:36;6.13;;;4.03;;
75048;SDS011;63803;53.120;8.764;2023-02-15T01:24:02;10.80;;;3.85;;
75048;SDS011;63803;53.120;8.764;2023-02-15T01:26:27;5.82;;;3.60;;
75048;SDS011;63803;53.120;8.764;2023-02-15T01:28:53;9.75;;;3.92;;
75048;SDS011;63803;53.120;8.764;2023-02-15T01:31:19;7.18;;;3.85;;
75048;SDS011;63803;53.120;8.764;2023-02-15T01:33:47;7.05;;;4.03;;
75048;SDS011;63803;53.120;8.764;2023-02-15T01:36:13;10.15;;;4.50;;
75048;SDS011;63803;53.120;8.764;2023-02-15T01:38:39;5.55;;;3.35;;
75048;SDS011;63803;53.120;8.764;2023-02-15T01:41:05;6.03;;;3.63;;
75048;SDS011;63803;53.120;8.764;2023-02-15T01:43:52;7.57;;;3.88;;
75048;SDS011;63803;53.120;8.764;2023-02-15T01:46:18;12.10;;;4.00;;
75048;SDS011;63803;53.120;8.764;2023-02-15T01:48:47;5.57;;;3.85;;
75048;SDS011;63803;53.120;8.764;2023-02-15T01:51:17;4.97;;;3.72;;
75048;SDS011;63803;53.120;8.764;2023-02-15T01:54:05;5.82;;;3.90;;
75048;SDS011;63803;53.120;8.764;2023-02-15T01:57:13;5.38;;;4.03;;
75048;SDS011;63803;53.120;8.764;2023-02-15T01:59:43;5.30;;;3.95;;
75048;SDS011;63803;53.120;8.764;2023-02-15T02:02:13;6.35;;;3.95;;
75048;SDS011;63803;53.120;8.764;2023-02-15T02:04:41;6.63;;;3.97;;
75048;SDS011;63803;53.120;8.764;2023-02-15T02:07:11;5.20;;;4.10;;
75048;SDS011;63803;53.120;8.764;2023-02-15T02:09:39;5.40;;;4.13;;
75048;SDS011;63803;53.120;8.764;2023-02-15T02:12:04;6.38;;;3.83;;
75048;SDS011;63803;53.120;8.764;2023-02-15T02:14:30;5.57;;;4.15;;
75048;SDS011;63803;53.120;8.764;2023-02-15T02:36:32;7.07;;;4.05;;
75048;SDS011;63803;53.120;8.764;2023-02-15T02:47:21;6.72;;;4.45;;
75048;SDS011;63803;53.120;8.764;2023-02-15T02:49:52;4.78;;;4.07;;
75048;SDS011;63803;53.120;8.764;2023-02-15T02:52:42;10.02;;;4.47;;
75048;SDS011;63803;53.120;8.764;2023-02-15T02:57:52;7.18;;;4.40;;
75048;SDS011;63803;53.120;8.764;2023-02-15T03:00:21;9.57;;;4.78;;
75048;SDS011;63803;53.120;8.764;2023-02-15T03:02:49;5.40;;;4.18;;
75048;SDS011;63803;53.120;8.764;2023-02-15T03:05:18;5.57;;;4.25;;
75048;SDS011;63803;53.120;8.764;2023-02-15T03:10:16;9.48;;;4.57;;
75048;SDS011;63803;53.120;8.764;2023-02-15T03:12:45;7.55;;;4.47;;
75048;SDS011;63803;53.120;8.764;2023-02-15T03:15:19;8.30;;;4.22;;
75048;SDS011;63803;53.120;8.764;2023-02-15T03:17:47;5.85;;;3.95;;
75048;SDS011;63803;53.120;8.764;2023-02-15T03:20:20;7.47;;;4.65;;
75048;SDS011;63803;53.120;8.764;2023-02-15T03:22:52;7.18;;;4.18;;
75048;SDS011;63803;53.120;8.764;2023-02-15T03:25:27;5.85;;;4.05;;
75048;SDS011;63803;53.120;8.764;2023-02-15T03:27:59;9.27;;;4.40;;
75048;SDS011;63803;53.120;8.764;2023-02-15T03:30:28;6.60;;;4.78;;
75048;SDS011;63803;53.120;8.764;2023-02-15T03:32:55;7.13;;;4.32;;
75048;SDS011;63803;53.120;8.764;2023-02-15T03:35:24;6.07;;;4.30;;
75048;SDS011;63803;53.120;8.764;2023-02-15T03:37:59;7.40;;;4.22;;
75048;SDS011;63803;53.120;8.764;2023-02-15T03:45:47;5.47;;;4.18;;
75048;SDS011;63803;53.120;8.764;2023-02-15T03:48:31;5.68;;;3.90;;
75048;SDS011;63803;53.120;8.764;2023-02-15T03:51:02;6.93;;;4.40;;
75048;SDS011;63803;53.120;8.764;2023-02-15T03:53:49;5.38;;;3.95;;
75048;SDS011;63803;53.120;8.764;2023-02-15T03:56:16;5.70;;;4.63;;
75048;SDS011;63803;53.120;8.764;2023-02-15T03:58:42;6.45;;;3.92;;
75048;SDS011;63803;53.120;8.764;2023-02-15T04:01:27;5.63;;;4.10;;
75048;SDS011;63803;53.120;8.764;2023-02-15T04:04:19;4.50;;;3.75;;
75048;SDS011;63803;53.120;8.764;2023-02-15T04:06:47;5.60;;;4.00;;
75048;SDS011;63803;53.120;8.764;2023-02-15T04:09:13;29.33;;;5.47;;
75048;SDS011;63803;53.120;8.764;2023-02-15T04:11:57;16.58;;;5.13;;
75048;SDS011;63803;53.120;8.764;2023-02-15T04:14:22;8.45;;;4.10;;
75048;SDS011;63803;53.120;8.764;2023-02-15T04:17:07;8.00;;;4.38;;
75048;SDS011;63803;53.120;8.764;2023-02-15T04:19:33;5.22;;;3.58;;
75048;SDS011;63803;53.120;8.764;2023-02-15T04:22:17;5.85;;;4.30;;
75048;SDS011;63803;53.120;8.764;2023-02-15T04:25:00;7.72;;;4.43;;
75048;SDS011;63803;53.120;8.764;2023-02-15T04:27:38;9.95;;;4.15;;
75048;SDS011;63803;53.120;8.764;2023-02-15T04:30:05;11.05;;;4.30;;
75048;SDS011;63803;53.120;8.764;2023-02-15T04:32:31;8.73;;;4.28;;
75048;SDS011;63803;53.120;8.764;2023-02-15T04:34:57;10.27;;;4.70;;
75048;SDS011;63803;53.120;8.764;2023-02-15T04:37:22;17.40;;;5.18;;
75048;SDS011;63803;53.120;8.764;2023-02-15T04:39:48;11.23;;;4.93;;
75048;SDS011;63803;53.120;8.764;2023-02-15T04:42:14;23.60;;;5.00;;
75048;SDS011;63803;53.120;8.764;2023-02-15T04:44:40;12.13;;;4.40;;
75048;SDS011;63803;53.120;8.764;2023-02-15T04:47:05;11.93;;;5.05;;
75048;SDS011;63803;53.120;8.764;2023-02-15T04:49:30;15.40;;;5.03;;
75048;SDS011;63803;53.120;8.764;2023-02-15T04:51:56;13.65;;;5.32;;
75048;SDS011;63803;53.120;8.764;2023-02-15T04:54:21;15.32;;;4.95;;
75048;SDS011;63803;53.120;8.764;2023-02-15T04:56:46;12.75;;;4.95;;
75048;SDS011;63803;53.120;8.764;2023-02-15T04:59:12;15.45;;;4.90;;
75048;SDS011;63803;53.120;8.764;2023-02-15T05:01:38;13.38;;;4.85;;
75048;SDS011;63803;53.120;8.764;2023-02-15T05:04:03;10.65;;;4.70;;
75048;SDS011;63803;53.120;8.764;2023-02-15T05:06:29;13.75;;;4.90;;
75048;SDS011;63803;53.120;8.764;2023-02-15T05:08:54;13.63;;;4.50;;
75048;SDS011;63803;53.120;8.764;2023-02-15T05:11:20;17.80;;;4.65;;
75048;SDS011;63803;53.120;8.764;2023-02-15T05:13:45;13.05;;;5.10;;
75048;SDS011;63803;53.120;8.764;2023-02-15T05:16:11;8.15;;;4.57;;
75048;SDS011;63803;53.120;8.764;2023-02-15T05:18:36;10.57;;;4.30;;
75048;SDS011;63803;53.120;8.764;2023-02-15T05:21:02;10.02;;;4.78;;
75048;SDS011;63803;53.120;8.764;2023-02-15T05:23:27;6.85;;;3.72;;
75048;SDS011;63803;53.120;8.764;2023-02-15T05:25:53;11.27;;;4.70;;
75048;SDS011;63803;53.120;8.764;2023-02-15T05:28:37;10.20;;;4.15;;
75048;SDS011;63803;53.120;8.764;2023-02-15T05:33:46;7.45;;;4.13;;
75048;SDS011;63803;53.120;8.764;2023-02-15T05:36:15;8.50;;;4.90;;
75048;SDS011;63803;53.120;8.764;2023-02-15T05:38:40;11.25;;;4.38;;
75048;SDS011;63803;53.120;8.764;2023-02-15T05:41:06;8.82;;;4.13;;
75048;SDS011;63803;53.120;8.764;2023-02-15T05:43:33;8.90;;;4.55;;
75048;SDS011;63803;53.120;8.764;2023-02-15T05:45:58;6.63;;;4.53;;
75048;SDS011;63803;53.120;8.764;2023-02-15T05:48:25;8.45;;;4.65;;
75048;SDS011;63803;53.120;8.764;2023-02-15T05:53:34;7.72;;;4.32;;
75048;SDS011;63803;53.120;8.764;2023-02-15T05:56:03;8.27;;;4.28;;
75048;SDS011;63803;53.120;8.764;2023-02-15T05:58:30;8.75;;;4.10;;
75048;SDS011;63803;53.120;8.764;2023-02-15T06:00:57;9.13;;;4.20;;
75048;SDS011;63803;53.120;8.764;2023-02-15T06:03:23;10.25;;;4.40;;
75048;SDS011;63803;53.120;8.764;2023-02-15T06:05:51;8.15;;;4.40;;
75048;SDS011;63803;53.120;8.764;2023-02-15T06:08:17;9.38;;;4.60;;
75048;SDS011;63803;53.120;8.764;2023-02-15T06:10:43;10.30;;;4.32;;
75048;SDS011;63803;53.120;8.764;2023-02-15T06:13:10;6.28;;;3.70;;
75048;SDS011;63803;53.120;8.764;2023-02-15T06:15:35;12.00;;;4.70;;
75048;SDS011;63803;53.120;8.764;2023-02-15T06:18:01;8.40;;;3.80;;
75048;SDS011;63803;53.120;8.764;2023-02-15T06:20:27;8.30;;;4.20;;
75048;SDS011;63803;53.120;8.764;2023-02-15T06:22:52;7.70;;;4.03;;
75048;SDS011;63803;53.120;8.764;2023-02-15T06:25:18;10.68;;;4.30;;
75048;SDS011;63803;53.120;8.764;2023-02-15T06:27:43;6.63;;;3.45;;
75048;SDS011;63803;53.120;8.764;2023-02-15T06:30:09;9.90;;;5.22;;
75048;SDS011;63803;53.120;8.764;2023-02-15T06:32:35;8.82;;;5.38;;
75048;SDS011;63803;53.120;8.764;2023-02-15T06:35:01;8.63;;;5.35;;
75048;SDS011;63803;53.120;8.764;2023-02-15T06:37:26;12.73;;;5.10;;
75048;SDS011;63803;53.120;8.764;2023-02-15T06:39:52;12.23;;;4.85;;
75048;SDS011;63803;53.120;8.764;2023-02-15T06:42:17;10.65;;;4.57;;
75048;SDS011;63803;53.120;8.764;2023-02-15T06:44:43;10.00;;;4.38;;
75048;SDS011;63803;53.120;8.764;2023-02-15T06:47:09;11.10;;;4.40;;
75048;SDS011;63803;53.120;8.764;2023-02-15T06:49:35;10.65;;;4.30;;
75048;SDS011;63803;53.120;8.764;2023-02-15T06:52:01;11.98;;;4.63;;
75048;SDS011;63803;53.120;8.764;2023-02-15T06:54:26;13.25;;;5.32;;
75048;SDS011;63803;53.120;8.764;2023-02-15T06:56:51;11.80;;;5.20;;
75048;SDS011;63803;53.120;8.764;2023-02-15T06:59:17;10.20;;;4.38;;
75048;SDS011;63803;53.120;8.764;2023-02-15T07:01:42;12.35;;;4.10;;
75048;SDS011;63803;53.120;8.764;2023-02-15T07:04:08;6.65;;;4.22;;
75048;SDS011;63803;53.120;8.764;2023-02-15T07:06:34;10.30;;;4.22;;
75048;SDS011;63803;53.120;8.764;2023-02-15T07:09:00;8.93;;;4.38;;
75048;SDS011;63803;53.120;8.764;2023-02-15T07:11:25;12.05;;;4.20;;
75048;SDS011;63803;53.120;8.764;2023-02-15T07:14:09;12.10;;;4.78;;
75048;SDS011;63803;53.120;8.764;2023-02-15T07:16:35;11.13;;;4.70;;
75048;SDS011;63803;53.120;8.764;2023-02-15T07:19:00;9.68;;;3.90;;
75048;SDS011;63803;53.120;8.764;2023-02-15T07:21:25;9.43;;;4.10;;
75048;SDS011;63803;53.120;8.764;2023-02-15T07:23:51;8.68;;;4.15;;
75048;SDS011;63803;53.120;8.764;2023-02-15T07:26:16;13.02;;;4.88;;
75048;SDS011;63803;53.120;8.764;2023-02-15T07:28:42;7.20;;;4.22;;
75048;SDS011;63803;53.120;8.764;2023-02-15T07:31:07;9.07;;;3.85;;
75048;SDS011;63803;53.120;8.764;2023-02-15T07:33:33;8.23;;;4.15;;
75048;SDS011;63803;53.120;8.764;2023-02-15T07:36:02;11.95;;;4.97;;
75048;SDS011;63803;53.120;8.764;2023-02-15T07:38:33;10.00;;;4.20;;
75048;SDS011;63803;53.120;8.764;2023-02-15T07:41:00;6.38;;;3.92;;
75048;SDS011;63803;53.120;8.764;2023-02-15T07:43:26;10.57;;;4.30;;
75048;SDS011;63803;53.120;8.764;2023-02-15T07:45:53;14.02;;;5.22;;
75048;SDS011;63803;53.120;8.764;2023-02-15T07:48:18;11.00;;;4.15;;
75048;SDS011;63803;53.120;8.764;2023-02-15T07:50:43;10.82;;;4.57;;
75048;SDS011;63803;53.120;8.764;2023-02-15T07:53:09;11.13;;;4.63;;
75048;SDS011;63803;53.120;8.764;2023-02-15T07:55:34;9.25;;;4.25;;
75048;SDS011;63803;53.120;8.764;2023-02-15T07:57:59;15.98;;;4.57;;
75048;SDS011;63803;53.120;8.764;2023-02-15T08:00:25;20.10;;;5.65;;
75048;SDS011;63803;53.120;8.764;2023-02-15T08:02:52;20.52;;;6.43;;
75048;SDS011;63803;53.120;8.764;2023-02-15T08:05:42;12.02;;;6.25;;
75048;SDS011;63803;53.120;8.764;2023-02-15T08:08:10;17.15;;;6.70;;
75048;SDS011;63803;53.120;8.764;2023-02-15T08:11:09;11.85;;;6.22;;
75048;SDS011;63803;53.120;8.764;2023-02-15T08:13:54;10.85;;;6.35;;
75048;SDS011;63803;53.120;8.764;2023-02-15T08:16:28;10.85;;;5.88;;
75048;SDS011;63803;53.120;8.764;2023-02-15T08:18:54;13.80;;;5.97;;
75048;SDS011;63803;53.120;8.764;2023-02-15T08:21:20;14.07;;;5.15;;
75048;SDS011;63803;53.120;8.764;2023-02-15T08:23:47;13.55;;;5.13;;
75048;SDS011;63803;53.120;8.764;2023-02-15T08:26:12;12.63;;;4.55;;
75048;SDS011;63803;53.120;8.764;2023-02-15T08:28:38;23.15;;;5.47;;
75048;SDS011;63803;53.120;8.764;2023-02-15T08:31:07;11.65;;;5.30;;
75048;SDS011;63803;53.120;8.764;2023-02-15T08:33:35;11.05;;;5.22;;
75048;SDS011;63803;53.120;8.764;2023-02-15T08:36:06;12.52;;;5.10;;
75048;SDS011;63803;53.120;8.764;2023-02-15T08:41:09;11.50;;;4.80;;
75048;SDS011;63803;53.120;8.764;2023-02-15T08:43:48;17.85;;;5.18;;
75048;SDS011;63803;53.120;8.764;2023-02-15T08:46:16;8.32;;;4.20;;
75048;SDS011;63803;53.120;8.764;2023-02-15T08:48:43;13.98;;;4.78;;
75048;SDS011;63803;53.120;8.764;2023-02-15T08:51:09;8.32;;;4.50;;
75048;SDS011;63803;53.120;8.764;2023-02-15T08:53:40;7.28;;;4.00;;
75048;SDS011;63803;53.120;8.764;2023-02-15T08:56:09;7.93;;;4.60;;
75048;SDS011;63803;53.120;8.764;2023-02-15T08:58:35;20.05;;;4.70;;
75048;SDS011;63803;53.120;8.764;2023-02-15T09:01:01;10.07;;;4.00;;
75048;SDS011;63803;53.120;8.764;2023-02-15T09:03:32;8.95;;;4.35;;
75048;SDS011;63803;53.120;8.764;2023-02-15T09:05:58;11.10;;;4.53;;
75048;SDS011;63803;53.120;8.764;2023-02-15T09:08:25;10.18;;;4.53;;
75048;SDS011;63803;53.120;8.764;2023-02-15T09:10:51;8.88;;;4.25;;
75048;SDS011;63803;53.120;8.764;2023-02-15T09:13:16;8.07;;;4.85;;
75048;SDS011;63803;53.120;8.764;2023-02-15T09:15:42;7.00;;;3.95;;
75048;SDS011;63803;53.120;8.764;2023-02-15T09:18:07;11.23;;;4.03;;
75048;SDS011;63803;53.120;8.764;2023-02-15T09:20:35;7.18;;;4.43;;
75048;SDS011;63803;53.120;8.764;2023-02-15T09:23:01;79.93;;;28.23;;
75048;SDS011;63803;53.120;8.764;2023-02-15T09:25:26;113.18;;;46.33;;
75048;SDS011;63803;53.120;8.764;2023-02-15T09:27:52;69.72;;;26.00;;
75048;SDS011;63803;53.120;8.764;2023-02-15T09:30:17;42.58;;;16.30;;
75048;SDS011;63803;53.120;8.764;2023-02-15T09:32:43;46.80;;;17.20;;
75048;SDS011;63803;53.120;8.764;2023-02-15T09:35:11;59.70;;;20.23;;
75048;SDS011;63803;53.120;8.764;2023-02-15T09:37:37;54.72;;;19.67;;
75048;SDS011;63803;53.120;8.764;2023-02-15T09:40:02;62.97;;;20.20;;
75048;SDS011;63803;53.120;8.764;2023-02-15T09:42:41;56.03;;;19.33;;
75048;SDS011;63803;53.120;8.764;2023-02-15T09:45:18;65.03;;;20.08;;
75048;SDS011;63803;53.120;8.764;2023-02-15T10:09:02;37.63;;;13.40;;
75048;SDS011;63803;53.120;8.764;2023-02-15T10:17:29;38.85;;;12.07;;
75048;SDS011;63803;53.120;8.764;2023-02-15T10:20:08;29.25;;;11.27;;
75048;SDS011;63803;53.120;8.764;2023-02-15T10:25:26;27.23;;;9.75;;
75048;SDS011;63803;53.120;8.764;2023-02-15T10:28:04;26.23;;;10.95;;
75048;SDS011;63803;53.120;8.764;2023-02-15T10:33:16;25.13;;;10.30;;
75048;SDS011;63803;53.120;8.764;2023-02-15T10:36:05;29.70;;;10.05;;
75048;SDS011;63803;53.120;8.764;2023-02-15T10:41:45;20.08;;;8.75;;
75048;SDS011;63803;53.120;8.764;2023-02-15T10:46:55;26.58;;;9.55;;
75048;SDS011;63803;53.120;8.764;2023-02-15T10:55:53;26.48;;;8.73;;
75048;SDS011;63803;53.120;8.764;2023-02-15T11:04:25;22.05;;;7.47;;
75048;SDS011;63803;53.120;8.764;2023-02-15T11:06:59;27.17;;;8.30;;
75048;SDS011;63803;53.120;8.764;2023-02-15T11:09:33;27.40;;;8.63;;
75048;SDS011;63803;53.120;8.764;2023-02-15T11:12:04;27.58;;;7.53;;
75048;SDS011;63803;53.120;8.764;2023-02-15T11:17:09;18.88;;;7.18;;
75048;SDS011;63803;53.120;8.764;2023-02-15T11:20:00;14.02;;;7.22;;
75048;SDS011;63803;53.120;8.764;2023-02-15T11:22:30;18.88;;;7.70;;
75048;SDS011;63803;53.120;8.764;2023-02-15T11:24:58;19.63;;;7.38;;
75048;SDS011;63803;53.120;8.764;2023-02-15T11:27:27;17.88;;;7.35;;
75048;SDS011;63803;53.120;8.764;2023-02-15T11:30:10;18.48;;;7.18;;
75048;SDS011;63803;53.120;8.764;2023-02-15T11:32:38;13.88;;;6.38;;
75048;SDS011;63803;53.120;8.764;2023-02-15T11:35:11;17.02;;;6.38;;
75048;SDS011;63803;53.120;8.764;2023-02-15T11:38:14;11.90;;;6.03;;
75048;SDS011;63803;53.120;8.764;2023-02-15T11:40:45;18.42;;;6.78;;
75048;SDS011;63803;53.120;8.764;2023-02-15T11:43:19;18.90;;;6.43;;
75048;SDS011;63803;53.120;8.764;2023-02-15T11:45:49;17.90;;;6.30;;
75048;SDS011;63803;53.120;8.764;2023-02-15T11:48:15;14.50;;;5.82;;
75048;SDS011;63803;53.120;8.764;2023-02-15T11:50:41;18.83;;;5.88;;
75048;SDS011;63803;53.120;8.764;2023-02-15T11:53:12;13.27;;;5.60;;
75048;SDS011;63803;53.120;8.764;2023-02-15T11:55:43;18.58;;;5.57;;
75048;SDS011;63803;53.120;8.764;2023-02-15T11:58:21;19.40;;;6.32;;
75048;SDS011;63803;53.120;8.764;2023-02-15T12:00:49;13.90;;;5.70;;
75048;SDS011;63803;53.120;8.764;2023-02-15T12:03:40;12.43;;;5.03;;
75048;SDS011;63803;53.120;8.764;2023-02-15T12:06:11;14.57;;;5.32;;
75048;SDS011;63803;53.120;8.764;2023-02-15T12:08:42;15.40;;;5.32;;
75048;SDS011;63803;53.120;8.764;2023-02-15T12:11:21;12.30;;;5.18;;
75048;SDS011;63803;53.120;8.764;2023-02-15T12:13:55;14.77;;;5.13;;
75048;SDS011;63803;53.120;8.764;2023-02-15T12:18:47;14.05;;;4.75;;
75048;SDS011;63803;53.120;8.764;2023-02-15T12:21:27;10.70;;;4.53;;
75048;SDS011;63803;53.120;8.764;2023-02-15T12:24:09;11.30;;;4.60;;
75048;SDS011;63803;53.120;8.764;2023-02-15T12:26:43;9.23;;;4.90;;
75048;SDS011;63803;53.120;8.764;2023-02-15T12:29:16;14.18;;;4.38;;
75048;SDS011;63803;53.120;8.764;2023-02-15T12:31:45;11.05;;;4.82;;
75048;SDS011;63803;53.120;8.764;2023-02-15T12:34:14;13.82;;;4.93;;
75048;SDS011;63803;53.120;8.764;2023-02-15T12:36:49;12.50;;;5.05;;
75048;SDS011;63803;53.120;8.764;2023-02-15T12:41:57;9.55;;;4.70;;
75048;SDS011;63803;53.120;8.764;2023-02-15T12:44:25;10.15;;;4.93;;
75048;SDS011;63803;53.120;8.764;2023-02-15T12:47:04;15.02;;;5.00;;
75048;SDS011;63803;53.120;8.764;2023-02-15T12:49:42;12.05;;;5.18;;
75048;SDS011;63803;53.120;8.764;2023-02-15T12:52:30;12.85;;;4.32;;
75048;SDS011;63803;53.120;8.764;2023-02-15T12:54:54;8.77;;;4.65;;
75048;SDS011;63803;53.120;8.764;2023-02-15T12:59:54;10.60;;;4.85;;
75048;SDS011;63803;53.120;8.764;2023-02-15T13:02:22;9.05;;;4.43;;
75048;SDS011;63803;53.120;8.764;2023-02-15T13:05:10;12.25;;;4.55;;
75048;SDS011;63803;53.120;8.764;2023-02-15T13:07:44;11.70;;;4.87;;
75048;SDS011;63803;53.120;8.764;2023-02-15T13:10:28;10.27;;;4.65;;
75048;SDS011;63803;53.120;8.764;2023-02-15T13:12:56;7.95;;;4.40;;
75048;SDS011;63803;53.120;8.764;2023-02-15T13:15:36;10.90;;;5.15;;
75048;SDS011;63803;53.120;8.764;2023-02-15T13:18:04;16.15;;;4.72;;
75048;SDS011;63803;53.120;8.764;2023-02-15T13:20:35;9.07;;;4.20;;
75048;SDS011;63803;53.120;8.764;2023-02-15T13:23:06;6.65;;;4.38;;
75048;SDS011;63803;53.120;8.764;2023-02-15T13:25:44;11.27;;;4.93;;
75048;SDS011;63803;53.120;8.764;2023-02-15T13:28:15;9.48;;;4.65;;
75048;SDS011;63803;53.120;8.764;2023-02-15T13:30:44;8.40;;;4.40;;
75048;SDS011;63803;53.120;8.764;2023-02-15T13:33:14;6.53;;;4.20;;
75048;SDS011;63803;53.120;8.764;2023-02-15T13:35:47;9.85;;;4.47;;
75048;SDS011;63803;53.120;8.764;2023-02-15T13:38:32;6.30;;;4.47;;
75048;SDS011;63803;53.120;8.764;2023-02-15T13:41:04;6.50;;;3.75;;
75048;SDS011;63803;53.120;8.764;2023-02-15T13:43:40;7.75;;;4.15;;
75048;SDS011;63803;53.120;8.764;2023-02-15T13:49:26;9.32;;;4.47;;
75048;SDS011;63803;53.120;8.764;2023-02-15T14:00:59;5.90;;;4.07;;
75048;SDS011;63803;53.120;8.764;2023-02-15T14:03:43;6.10;;;4.20;;
75048;SDS011;63803;53.120;8.764;2023-02-15T14:12:12;7.85;;;4.35;;
75048;SDS011;63803;53.120;8.764;2023-02-15T14:20:41;6.18;;;3.78;;
75048;SDS011;63803;53.120;8.764;2023-02-15T14:26:05;5.55;;;4.10;;
75048;SDS011;63803;53.120;8.764;2023-02-15T14:28:58;6.15;;;3.83;;
75048;SDS011;63803;53.120;8.764;2023-02-15T14:31:42;5.72;;;3.80;;
75048;SDS011;63803;53.120;8.764;2023-02-15T14:34:17;5.75;;;3.90;;
75048;SDS011;63803;53.120;8.764;2023-02-15T14:36:46;7.60;;;4.53;;
75048;SDS011;63803;53.120;8.764;2023-02-15T14:39:31;6.25;;;3.85;;
75048;SDS011;63803;53.120;8.764;2023-02-15T14:42:30;5.97;;;3.85;;
75048;SDS011;63803;53.120;8.764;2023-02-15T14:47:37;6.18;;;4.00;;
75048;SDS011;63803;53.120;8.764;2023-02-15T14:55:45;5.43;;;3.83;;
75048;SDS011;63803;53.120;8.764;2023-02-15T14:58:11;5.43;;;4.30;;
75048;SDS011;63803;53.120;8.764;2023-02-15T15:00:38;5.93;;;3.80;;
75048;SDS011;63803;53.120;8.764;2023-02-15T15:03:21;11.38;;;4.50;;
75048;SDS011;63803;53.120;8.764;2023-02-15T15:05:50;9.52;;;4.00;;
75048;SDS011;63803;53.120;8.764;2023-02-15T15:08:36;6.38;;;4.13;;
75048;SDS011;63803;53.120;8.764;2023-02-15T15:13:58;5.32;;;4.20;;
75048;SDS011;63803;53.120;8.764;2023-02-15T15:19:11;5.93;;;3.80;;
75048;SDS011;63803;53.120;8.764;2023-02-15T15:35:36;6.18;;;4.25;;
75048;SDS011;63803;53.120;8.764;2023-02-15T15:46:24;5.53;;;4.10;;
75048;SDS011;63803;53.120;8.764;2023-02-15T15:48:57;4.57;;;3.60;;
75048;SDS011;63803;53.120;8.764;2023-02-15T15:51:28;4.28;;;3.80;;
75048;SDS011;63803;53.120;8.764;2023-02-15T15:53:56;5.03;;;3.63;;
75048;SDS011;63803;53.120;8.764;2023-02-15T15:56:29;5.90;;;3.53;;
75048;SDS011;63803;53.120;8.764;2023-02-15T15:58:58;8.02;;;3.78;;
75048;SDS011;63803;53.120;8.764;2023-02-15T16:01:27;6.50;;;3.67;;
75048;SDS011;63803;53.120;8.764;2023-02-15T16:04:00;8.07;;;3.85;;
75048;SDS011;63803;53.120;8.764;2023-02-15T16:06:29;5.47;;;3.90;;
75048;SDS011;63803;53.120;8.764;2023-02-15T16:08:57;4.05;;;3.22;;
75048;SDS011;63803;53.120;8.764;2023-02-15T16:11:35;5.22;;;3.95;;
75048;SDS011;63803;53.120;8.764;2023-02-15T16:14:08;5.20;;;3.55;;
75048;SDS011;63803;53.120;8.764;2023-02-15T16:16:36;4.25;;;3.38;;
75048;SDS011;63803;53.120;8.764;2023-02-15T16:19:02;6.85;;;4.22;;
75048;SDS011;63803;53.120;8.764;2023-02-15T16:21:31;5.95;;;3.70;;
75048;SDS011;63803;53.120;8.764;2023-02-15T16:24:09;6.38;;;3.20;;
75048;SDS011;63803;53.120;8.764;2023-02-15T16:27:07;6.03;;;3.75;;
75048;SDS011;63803;53.120;8.764;2023-02-15T16:29:34;6.65;;;4.10;;
75048;SDS011;63803;53.120;8.764;2023-02-15T16:32:04;5.53;;;3.63;;
75048;SDS011;63803;53.120;8.764;2023-02-15T16:34:50;4.53;;;3.67;;
75048;SDS011;63803;53.120;8.764;2023-02-15T16:37:18;5.55;;;3.70;;
75048;SDS011;63803;53.120;8.764;2023-02-15T16:39:46;4.53;;;3.90;;
75048;SDS011;63803;53.120;8.764;2023-02-15T16:42:15;4.43;;;3.85;;
75048;SDS011;63803;53.120;8.764;2023-02-15T16:44:42;4.68;;;3.38;;
75048;SDS011;63803;53.120;8.764;2023-02-15T16:47:25;5.25;;;3.67;;
75048;SDS011;63803;53.120;8.764;2023-02-15T16:49:54;4.70;;;3.55;;
75048;SDS011;63803;53.120;8.764;2023-02-15T16:52:23;5.13;;;3.97;;
75048;SDS011;63803;53.120;8.764;2023-02-15T16:54:53;7.18;;;3.67;;
75048;SDS011;63803;53.120;8.764;2023-02-15T16:57:21;4.35;;;3.80;;
75048;SDS011;63803;53.120;8.764;2023-02-15T16:59:50;9.27;;;3.60;;
75048;SDS011;63803;53.120;8.764;2023-02-15T17:02:23;6.43;;;3.72;;
75048;SDS011;63803;53.120;8.764;2023-02-15T17:05:01;4.82;;;3.28;;
75048;SDS011;63803;53.120;8.764;2023-02-15T17:07:41;6.35;;;3.80;;
75048;SDS011;63803;53.120;8.764;2023-02-15T17:13:13;5.25;;;3.63;;
75048;SDS011;63803;53.120;8.764;2023-02-15T17:15:42;4.35;;;3.42;;
75048;SDS011;63803;53.120;8.764;2023-02-15T17:18:19;4.50;;;3.67;;
75048;SDS011;63803;53.120;8.764;2023-02-15T17:20:47;4.30;;;3.60;;
75048;SDS011;63803;53.120;8.764;2023-02-15T17:23:22;4.05;;;3.65;;
75048;SDS011;63803;53.120;8.764;2023-02-15T17:25:49;4.43;;;3.47;;
75048;SDS011;63803;53.120;8.764;2023-02-15T17:28:20;5.13;;;3.90;;
75048;SDS011;63803;53.120;8.764;2023-02-15T17:30:48;4.53;;;3.50;;
75048;SDS011;63803;53.120;8.764;2023-02-15T17:33:24;7.32;;;3.90;;
75048;SDS011;63803;53.120;8.764;2023-02-15T17:36:11;5.22;;;3.92;;
75048;SDS011;63803;53.120;8.764;2023-02-15T17:38:42;5.72;;;3.78;;
75048;SDS011;63803;53.120;8.764;2023-02-15T17:41:28;4.35;;;3.55;;
75048;SDS011;63803;53.120;8.764;2023-02-15T17:43:55;5.40;;;4.10;;
75048;SDS011;63803;53.120;8.764;2023-02-15T17:46:20;5.47;;;3.60;;
75048;SDS011;63803;53.120;8.764;2023-02-15T17:48:50;6.05;;;3.50;;
75048;SDS011;63803;53.120;8.764;2023-02-15T17:51:17;4.88;;;3.33;;
75048;SDS011;63803;53.120;8.764;2023-02-15T17:53:44;5.00;;;3.80;;
75048;SDS011;63803;53.120;8.764;2023-02-15T17:56:30;5.43;;;3.53;;